createdAt,value
2023-05-20T00:01:44.315Z,99.90
2023-05-20T00:04:12.476Z,99.90
2023-05-20T00:06:42.097Z,99.90
2023-05-20T00:09:09.999Z,99.90
2023-05-20T00:11:38.095Z,99.90
2023-05-20T00:14:06.344Z,99.90
2023-05-20T00:16:34.307Z,99.90
2023-05-20T00:19:02.295Z,99.90
2023-05-20T00:21:31.187Z,99.90
2023-05-20T00:24:00.997Z,99.90
2023-05-20T00:26:29.880Z,99.90
2023-05-20T00:28:58.973Z,99.90
2023-05-20T00:31:26.911Z,99.90
2023-05-20T00:33:54.846Z,99.90
2023-05-20T00:36:22.752Z,99.90
2023-05-20T00:38:50.862Z,99.90
2023-05-20T00:41:21.551Z,99.90
2023-05-20T00:43:49.479Z,99.90
2023-05-20T00:46:17.699Z,99.90
2023-05-20T00:48:45.952Z,99.90
2023-05-20T00:51:15.399Z,99.90
2023-05-20T00:53:44.604Z,99.90
2023-05-20T00:56:13.273Z,99.90
2023-05-20T00:58:42.711Z,99.90
2023-05-20T01:01:10.981Z,99.90
2023-05-20T01:03:39.764Z,99.90
2023-05-20T01:06:07.936Z,99.90
2023-05-20T01:08:36.174Z,99.90
2023-05-20T01:11:07.768Z,99.90
2023-05-20T01:13:41.819Z,99.90
2023-05-20T01:16:12.302Z,99.90
2023-05-20T01:18:42.071Z,99.90
2023-05-20T01:21:13.164Z,99.90
2023-05-20T01:23:43.214Z,99.90
2023-05-20T01:26:13.818Z,99.90
2023-05-20T01:28:44.572Z,99.90
2023-05-20T01:31:15.992Z,99.90
2023-05-20T01:33:44.876Z,99.90
2023-05-20T01:36:13.542Z,99.90
2023-05-20T01:38:43.579Z,99.90
2023-05-20T01:41:13.184Z,99.90
2023-05-20T01:43:42.000Z,99.90
2023-05-20T01:46:10.052Z,99.90
2023-05-20T01:48:38.532Z,99.90
2023-05-20T01:51:06.649Z,99.90
2023-05-20T01:53:34.603Z,99.90
2023-05-20T01:56:06.736Z,99.90
2023-05-20T01:58:35.832Z,99.90
2023-05-20T02:01:04.315Z,99.90
2023-05-20T02:03:32.287Z,99.90
2023-05-20T02:06:00.872Z,99.90
2023-05-20T02:08:28.844Z,99.90
2023-05-20T02:10:56.743Z,99.90
2023-05-20T02:13:26.072Z,99.90
2023-05-20T02:15:54.100Z,99.90
2023-05-20T02:18:22.475Z,99.90
2023-05-20T02:20:50.501Z,99.90
2023-05-20T02:23:18.384Z,99.90
2023-05-20T02:25:46.963Z,99.90
2023-05-20T02:28:16.675Z,99.90
2023-05-20T02:30:46.270Z,99.90
2023-05-20T02:33:14.901Z,99.90
2023-05-20T02:35:43.126Z,99.90
2023-05-20T02:38:11.854Z,99.90
2023-05-20T02:40:39.960Z,99.90
2023-05-20T02:43:07.840Z,99.90
2023-05-20T02:45:36.671Z,99.90
2023-05-20T02:48:06.430Z,99.90
2023-05-20T02:50:34.438Z,99.90
2023-05-20T02:53:02.501Z,99.90
2023-05-20T02:55:30.653Z,99.90
2023-05-20T02:57:58.874Z,99.90
2023-05-20T03:00:28.758Z,99.90
2023-05-20T03:02:56.706Z,99.90
2023-05-20T03:05:27.522Z,99.90
2023-05-20T03:07:55.602Z,99.90
2023-05-20T03:10:23.864Z,99.90
2023-05-20T03:12:52.082Z,99.90
2023-05-20T03:15:19.997Z,99.90
2023-05-20T03:17:47.992Z,99.90
2023-05-20T03:20:16.727Z,99.90
2023-05-20T03:22:46.060Z,99.90
2023-05-20T03:25:14.891Z,99.90
2023-05-20T03:27:44.739Z,99.90
2023-05-20T03:30:13.494Z,99.90
2023-05-20T03:32:42.009Z,99.90
2023-05-20T03:35:10.395Z,99.90
2023-05-20T03:37:39.831Z,99.90
2023-05-20T03:40:11.405Z,99.90
2023-05-20T03:42:40.769Z,99.90
2023-05-20T03:45:09.694Z,99.90
2023-05-20T03:47:44.674Z,99.90
2023-05-20T03:50:12.872Z,99.90
2023-05-20T03:52:41.021Z,99.90
2023-05-20T03:55:11.413Z,99.90
2023-05-20T03:57:39.856Z,99.90
2023-05-20T04:00:11.320Z,99.90
2023-05-20T04:02:44.702Z,99.90
2023-05-20T04:05:15.867Z,99.90
2023-05-20T04:07:43.863Z,99.90
2023-05-20T04:10:15.072Z,99.90
2023-05-20T04:12:43.550Z,99.90
2023-05-20T04:15:12.817Z,99.90
2023-05-20T04:17:50.639Z,99.90
2023-05-20T04:20:20.016Z,99.90
2023-05-20T04:22:48.304Z,99.90
2023-05-20T04:25:18.200Z,99.90
2023-05-20T04:27:46.542Z,99.90
2023-05-20T04:30:16.806Z,99.90
2023-05-20T04:32:45.408Z,99.90
2023-05-20T04:35:14.135Z,99.90
2023-05-20T04:37:47.920Z,99.90
2023-05-20T04:40:19.155Z,99.90
2023-05-20T04:42:47.518Z,99.90
2023-05-20T04:45:16.348Z,99.90
2023-05-20T04:47:44.541Z,99.90
2023-05-20T04:50:13.474Z,99.90
2023-05-20T04:52:43.265Z,99.90
2023-05-20T04:55:12.788Z,99.90
2023-05-20T04:57:42.824Z,99.90
2023-05-20T05:00:13.327Z,99.90
2023-05-20T05:02:42.222Z,99.90
2023-05-20T05:05:10.859Z,99.90
2023-05-20T05:07:39.923Z,99.90
2023-05-20T05:10:09.015Z,99.90
2023-05-20T05:12:36.968Z,99.90
2023-05-20T05:15:07.970Z,99.90
2023-05-20T05:17:35.937Z,99.90
2023-05-20T05:20:03.875Z,99.90
2023-05-20T05:22:36.850Z,99.90
2023-05-20T05:25:05.258Z,99.90
2023-05-20T05:27:33.242Z,99.90
2023-05-20T05:30:02.797Z,99.90
2023-05-20T05:32:32.411Z,99.90
2023-05-20T05:35:00.493Z,99.90
2023-05-20T05:37:29.895Z,99.90
2023-05-20T05:39:57.808Z,99.90
2023-05-20T05:42:26.598Z,99.90
2023-05-20T05:44:55.875Z,99.90
2023-05-20T05:47:29.669Z,99.90
2023-05-20T05:49:59.183Z,99.90
2023-05-20T05:52:28.244Z,99.90
2023-05-20T05:54:56.347Z,99.90
2023-05-20T05:57:24.462Z,99.90
2023-05-20T05:59:52.602Z,99.90
2023-05-20T06:02:20.692Z,99.90
2023-05-20T06:04:49.391Z,99.90
2023-05-20T06:07:19.645Z,99.90
2023-05-20T06:09:47.624Z,99.90
2023-05-20T06:12:15.612Z,99.90
2023-05-20T06:14:43.581Z,99.90
2023-05-20T06:17:11.652Z,99.90
2023-05-20T06:19:39.805Z,99.90
2023-05-20T06:22:07.817Z,99.90
2023-05-20T06:24:37.306Z,99.90
2023-05-20T06:27:05.672Z,99.90
2023-05-20T06:29:33.661Z,99.90
2023-05-20T06:32:01.514Z,99.90
2023-05-20T06:34:30.246Z,99.90
2023-05-20T06:36:58.219Z,99.90
2023-05-20T06:39:26.240Z,99.90
2023-05-20T06:41:55.568Z,99.90
2023-05-20T06:44:36.762Z,99.90
2023-05-20T06:47:22.822Z,99.90
2023-05-20T06:49:52.627Z,99.90
2023-05-20T06:52:20.792Z,99.90
2023-05-20T06:54:48.928Z,99.90
2023-05-20T06:57:18.319Z,99.90
2023-05-20T06:59:46.512Z,99.90
2023-05-20T07:02:15.688Z,99.90
2023-05-20T07:04:44.331Z,99.90
2023-05-20T07:07:12.287Z,99.90
2023-05-20T07:09:40.601Z,99.90
2023-05-20T07:12:09.498Z,99.90
2023-05-20T07:14:39.151Z,99.90
2023-05-20T07:17:07.491Z,99.90
2023-05-20T07:19:35.523Z,99.90
2023-05-20T07:22:03.602Z,99.90
2023-05-20T07:24:57.441Z,99.90
2023-05-20T07:27:25.554Z,99.90
2023-05-20T07:29:54.968Z,99.90
2023-05-20T07:32:23.088Z,99.90
2023-05-20T07:34:52.040Z,99.90
2023-05-20T07:37:20.532Z,99.70
2023-05-20T07:39:48.513Z,97.70
2023-05-20T07:42:16.598Z,97.00
2023-05-20T07:44:48.201Z,97.20
2023-05-20T07:47:17.584Z,98.40
2023-05-20T07:49:46.848Z,96.90
2023-05-20T07:52:14.846Z,97.30
2023-05-20T07:54:43.468Z,98.10
2023-05-20T07:57:12.405Z,99.90
2023-05-20T07:59:42.431Z,99.90
2023-05-20T08:02:10.614Z,99.90
2023-05-20T08:04:40.747Z,99.90
2023-05-20T08:07:08.876Z,99.90
2023-05-20T08:09:48.489Z,99.90
2023-05-20T08:12:16.838Z,99.90
2023-05-20T08:14:45.129Z,99.90
2023-05-20T08:17:13.578Z,99.90
2023-05-20T08:19:42.929Z,99.90
2023-05-20T08:22:10.935Z,99.90
2023-05-20T08:24:38.903Z,99.90
2023-05-20T08:27:07.501Z,99.90
2023-05-20T08:29:36.218Z,98.10
2023-05-20T08:32:05.595Z,94.10
2023-05-20T08:34:35.324Z,90.60
2023-05-20T08:37:04.798Z,88.30
2023-05-20T08:39:32.759Z,91.20
2023-05-20T08:42:01.308Z,93.80
2023-05-20T08:44:30.450Z,97.10
2023-05-20T08:46:59.468Z,99.80
2023-05-20T08:49:27.892Z,99.90
2023-05-20T08:51:56.091Z,99.90
2023-05-20T08:54:27.461Z,99.90
2023-05-20T08:56:56.001Z,99.90
2023-05-20T08:59:24.278Z,99.90
2023-05-20T09:01:52.483Z,99.90
2023-05-20T09:04:20.513Z,99.90
2023-05-20T09:06:48.962Z,95.80
2023-05-20T09:09:17.337Z,95.70
2023-05-20T09:11:46.603Z,95.30
2023-05-20T09:14:14.606Z,97.30
2023-05-20T09:16:42.557Z,98.10
2023-05-20T09:19:11.922Z,99.00
2023-05-20T09:21:42.988Z,99.90
2023-05-20T09:24:10.989Z,99.90
2023-05-20T09:26:38.856Z,99.90
2023-05-20T09:29:08.846Z,99.90
2023-05-20T09:31:38.911Z,99.90
2023-05-20T09:34:08.100Z,99.90
2023-05-20T09:36:37.056Z,99.90
2023-05-20T09:39:05.950Z,99.90
2023-05-20T09:41:37.084Z,99.90
2023-05-20T09:44:06.753Z,99.80
2023-05-20T09:46:37.173Z,98.60
2023-05-20T09:49:06.787Z,99.90
2023-05-20T09:51:36.274Z,98.50
2023-05-20T09:54:07.221Z,97.40
2023-05-20T09:56:36.014Z,97.70
2023-05-20T09:59:06.475Z,97.40
2023-05-20T10:01:36.147Z,97.10
2023-05-20T10:04:08.131Z,97.10
2023-05-20T10:06:56.093Z,96.80
2023-05-20T10:09:40.100Z,97.50
2023-05-20T10:14:51.615Z,95.00
2023-05-20T10:17:29.584Z,94.80
2023-05-20T10:20:01.661Z,95.20
2023-05-20T10:22:31.561Z,93.80
2023-05-20T10:25:01.268Z,95.30
2023-05-20T10:27:29.304Z,95.90
2023-05-20T10:29:58.368Z,97.30
2023-05-20T10:32:29.305Z,98.50
2023-05-20T10:35:01.567Z,99.10
2023-05-20T10:37:31.948Z,99.90
2023-05-20T10:40:12.245Z,99.90
2023-05-20T10:42:40.937Z,99.90
2023-05-20T10:45:10.051Z,99.90
2023-05-20T10:47:54.982Z,99.90
2023-05-20T10:50:30.102Z,99.90
2023-05-20T10:53:05.352Z,99.90
2023-05-20T10:55:39.422Z,99.90
2023-05-20T10:58:08.612Z,99.90
2023-05-20T11:00:38.482Z,99.90
2023-05-20T11:03:08.512Z,99.90
2023-05-20T11:05:37.451Z,99.90
2023-05-20T11:08:20.656Z,99.90
2023-05-20T11:10:58.284Z,99.90
2023-05-20T11:13:27.363Z,99.90
2023-05-20T11:15:55.651Z,99.90
2023-05-20T11:18:25.205Z,99.90
2023-05-20T11:20:54.461Z,99.90
2023-05-20T11:23:23.420Z,99.90
2023-05-20T11:25:53.229Z,99.90
2023-05-20T11:28:21.963Z,99.90
2023-05-20T11:30:50.520Z,99.90
2023-05-20T11:33:19.665Z,99.90
2023-05-20T11:35:52.820Z,99.90
2023-05-20T11:38:21.934Z,99.90
2023-05-20T11:40:54.216Z,99.90
2023-05-20T11:43:24.090Z,99.90
2023-05-20T11:45:55.617Z,99.90
2023-05-20T11:48:24.774Z,99.90
2023-05-20T11:50:55.868Z,99.90
2023-05-20T11:53:25.337Z,99.90
2023-05-20T11:55:55.930Z,98.60
2023-05-20T11:58:24.904Z,98.00
2023-05-20T12:00:59.476Z,96.70
2023-05-20T12:03:30.293Z,96.40
2023-05-20T12:06:02.469Z,98.40
2023-05-20T12:08:39.443Z,96.30
2023-05-20T12:11:07.428Z,95.10
2023-05-20T12:13:35.861Z,93.60
2023-05-20T12:16:05.809Z,94.20
2023-05-20T12:18:34.043Z,94.00
2023-05-20T12:21:03.925Z,95.30
2023-05-20T12:23:34.265Z,93.40
2023-05-20T12:26:02.423Z,92.40
2023-05-20T12:28:30.419Z,93.90
2023-05-20T12:30:58.378Z,93.30
2023-05-20T12:33:27.637Z,93.30
2023-05-20T12:35:55.635Z,93.30
2023-05-20T12:38:24.912Z,92.80
2023-05-20T12:40:52.825Z,93.40
2023-05-20T12:43:20.829Z,93.20
2023-05-20T12:45:48.776Z,92.90
2023-05-20T12:48:16.798Z,93.50
2023-05-20T12:50:44.824Z,93.80
2023-05-20T12:53:12.891Z,92.90
2023-05-20T12:55:42.157Z,93.00
2023-05-20T12:58:10.079Z,93.60
2023-05-20T13:00:38.035Z,92.10
2023-05-20T13:03:06.197Z,93.40
2023-05-20T13:05:34.177Z,92.50
2023-05-20T13:08:02.066Z,93.90
2023-05-20T13:10:29.988Z,91.40
2023-05-20T13:12:59.617Z,91.50
2023-05-20T13:15:27.545Z,91.90
2023-05-20T13:17:56.342Z,92.40
2023-05-20T13:20:24.356Z,93.40
2023-05-20T13:22:52.548Z,94.20
2023-05-20T13:25:20.665Z,94.20
2023-05-20T13:27:48.710Z,92.30
2023-05-20T13:30:18.192Z,90.80
2023-05-20T13:32:46.282Z,90.60
2023-05-20T13:35:14.779Z,89.60
2023-05-20T13:37:42.767Z,89.60
2023-05-20T13:40:11.701Z,90.20
2023-05-20T13:42:39.792Z,87.40
2023-05-20T13:45:08.935Z,89.40
2023-05-20T13:47:38.376Z,88.20
2023-05-20T13:50:07.741Z,88.60
2023-05-20T13:52:35.879Z,89.10
2023-05-20T13:55:03.914Z,90.50
2023-05-20T13:57:31.852Z,90.40
2023-05-20T13:59:59.740Z,88.50
2023-05-20T14:02:27.818Z,88.80
2023-05-20T14:04:57.200Z,87.60
2023-05-20T14:07:25.122Z,90.30
2023-05-20T14:09:53.126Z,94.70
2023-05-20T14:12:22.949Z,96.10
2023-05-20T14:14:51.064Z,96.50
2023-05-20T14:17:19.281Z,98.20
2023-05-20T14:19:47.201Z,98.40
2023-05-20T14:22:16.548Z,99.10
2023-05-20T14:24:44.445Z,99.20
2023-05-20T14:27:14.090Z,99.90
2023-05-20T14:29:42.142Z,99.30
2023-05-20T14:32:11.556Z,99.80
2023-05-20T14:34:39.475Z,99.70
2023-05-20T14:37:09.940Z,99.90
2023-05-20T14:39:39.468Z,99.10
2023-05-20T14:42:07.421Z,99.90
2023-05-20T14:44:35.426Z,99.90
2023-05-20T14:47:04.642Z,99.90
2023-05-20T14:49:32.734Z,99.90
2023-05-20T14:52:00.670Z,99.90
2023-05-20T14:54:28.592Z,99.90
2023-05-20T14:56:58.124Z,99.90
2023-05-20T14:59:26.269Z,99.90
2023-05-20T15:01:54.344Z,99.90
2023-05-20T15:04:22.221Z,99.90
2023-05-20T15:06:50.644Z,99.90
2023-05-20T15:09:18.693Z,99.90
2023-05-20T15:11:47.973Z,99.90
2023-05-20T15:14:17.303Z,99.90
2023-05-20T15:16:46.073Z,99.90
2023-05-20T15:19:15.089Z,99.90
2023-05-20T15:21:43.383Z,99.90
2023-05-20T15:24:11.797Z,99.90
2023-05-20T15:26:41.301Z,99.90
2023-05-20T15:29:09.203Z,99.90
2023-05-20T15:31:38.532Z,99.90
2023-05-20T15:34:06.703Z,99.90
2023-05-20T15:36:34.680Z,99.90
2023-05-20T15:39:02.611Z,99.90
2023-05-20T15:41:33.001Z,99.90
2023-05-20T15:44:02.053Z,99.90
2023-05-20T15:46:30.182Z,99.90
2023-05-20T15:48:59.765Z,99.90
2023-05-20T15:51:27.641Z,99.90
2023-05-20T15:53:55.694Z,99.90
2023-05-20T15:56:23.927Z,99.90
2023-05-20T15:58:51.877Z,99.90
2023-05-20T16:01:19.762Z,99.90
2023-05-20T16:03:47.842Z,99.90
2023-05-20T16:06:17.587Z,99.90
2023-05-20T16:08:46.351Z,99.90
2023-05-20T16:11:14.849Z,99.90
2023-05-20T16:13:43.778Z,99.90
2023-05-20T16:16:13.430Z,99.90
2023-05-20T16:18:41.489Z,99.90
2023-05-20T16:21:09.379Z,99.90
2023-05-20T16:23:38.592Z,99.90
2023-05-20T16:26:06.553Z,99.90
2023-05-20T16:28:34.415Z,99.90
2023-05-20T16:31:02.291Z,99.90
2023-05-20T16:33:30.454Z,99.90
2023-05-20T16:35:58.488Z,99.90
2023-05-20T16:38:26.345Z,99.90
2023-05-20T16:40:55.649Z,99.90
2023-05-20T16:43:23.553Z,99.90
2023-05-20T16:45:51.648Z,99.90
2023-05-20T16:48:19.598Z,99.90
2023-05-20T16:50:47.540Z,99.90
2023-05-20T16:53:16.595Z,99.90
2023-05-20T16:55:44.656Z,99.90
2023-05-20T16:58:14.015Z,99.90
2023-05-20T17:00:42.057Z,99.90
2023-05-20T17:03:09.980Z,99.90
2023-05-20T17:05:37.916Z,99.90
2023-05-20T17:08:06.245Z,99.90
2023-05-20T17:10:34.247Z,99.90
2023-05-20T17:13:02.333Z,99.90
2023-05-20T17:15:32.758Z,99.90
2023-05-20T17:18:01.242Z,99.90
2023-05-20T17:20:29.185Z,99.90
2023-05-20T17:22:57.118Z,99.90
2023-05-20T17:25:25.119Z,99.90
2023-05-20T17:27:53.068Z,99.90
2023-05-20T17:30:21.233Z,99.90
2023-05-20T17:32:53.723Z,99.90
2023-05-20T17:35:25.573Z,99.90
2023-05-20T17:37:53.803Z,99.90
2023-05-20T17:40:22.144Z,99.90
2023-05-20T17:42:50.048Z,99.90
2023-05-20T17:45:18.167Z,99.90
2023-05-20T17:47:46.178Z,99.90
2023-05-20T17:50:16.599Z,99.90
2023-05-20T17:52:44.536Z,99.90
2023-05-20T17:55:12.957Z,99.90
2023-05-20T17:57:40.901Z,99.90
2023-05-20T18:00:10.196Z,99.90
2023-05-20T18:02:38.851Z,99.90
2023-05-20T18:05:07.734Z,99.90
2023-05-20T18:07:37.390Z,99.90
2023-05-20T18:10:06.281Z,99.90
2023-05-20T18:12:34.152Z,99.90
2023-05-20T18:15:02.259Z,99.90
2023-05-20T18:17:30.211Z,99.90
2023-05-20T18:19:58.321Z,99.90
2023-05-20T18:22:27.047Z,99.90
2023-05-20T18:24:56.313Z,99.90
2023-05-20T18:27:24.340Z,99.90
2023-05-20T18:29:52.216Z,99.90
2023-05-20T18:32:22.196Z,99.90
2023-05-20T18:34:50.040Z,99.90
2023-05-20T18:37:17.970Z,99.90
2023-05-20T18:39:45.964Z,99.90
2023-05-20T18:42:15.794Z,99.90
2023-05-20T18:44:43.695Z,99.90
2023-05-20T18:47:11.816Z,99.90
2023-05-20T18:49:39.665Z,99.90
2023-05-20T18:52:08.330Z,99.90
2023-05-20T18:54:36.427Z,99.90
2023-05-20T18:57:05.204Z,99.90
2023-05-20T18:59:34.707Z,99.90
2023-05-20T19:02:02.617Z,99.90
2023-05-20T19:04:30.868Z,99.90
2023-05-20T19:06:59.139Z,99.90
2023-05-20T19:09:27.031Z,99.90
2023-05-20T19:11:58.899Z,99.90
2023-05-20T19:14:26.864Z,99.90
2023-05-20T19:16:56.412Z,99.90
2023-05-20T19:19:24.311Z,99.90
2023-05-20T19:21:52.329Z,99.90
2023-05-20T19:24:20.377Z,99.90
2023-05-20T19:26:48.275Z,99.90
2023-05-20T19:29:16.430Z,99.90
2023-05-20T19:31:44.737Z,99.90
2023-05-20T19:34:13.952Z,99.90
2023-05-20T19:36:42.889Z,99.90
2023-05-20T19:39:11.168Z,99.90
2023-05-20T19:41:39.463Z,99.90
2023-05-20T19:44:08.467Z,99.90
2023-05-20T19:46:37.455Z,99.90
2023-05-20T19:49:06.167Z,99.90
2023-05-20T19:51:35.355Z,99.90
2023-05-20T19:54:03.250Z,99.90
2023-05-20T19:56:31.180Z,99.90
2023-05-20T19:59:01.718Z,99.90
2023-05-20T20:01:29.850Z,99.90
2023-05-20T20:03:57.822Z,99.90
2023-05-20T20:06:26.035Z,99.90
2023-05-20T20:08:55.233Z,99.90
2023-05-20T20:11:23.716Z,99.90
2023-05-20T20:13:51.590Z,99.90
2023-05-20T20:16:19.500Z,99.90
2023-05-20T20:18:47.580Z,99.90
2023-05-20T20:21:15.701Z,99.90
2023-05-20T20:23:43.697Z,99.90
2023-05-20T20:26:13.836Z,99.90
2023-05-20T20:28:41.795Z,99.90
2023-05-20T20:31:09.694Z,99.90
2023-05-20T20:33:37.624Z,99.90
2023-05-20T20:36:06.162Z,99.90
2023-05-20T20:38:34.074Z,99.90
2023-05-20T20:41:03.810Z,99.90
2023-05-20T20:43:34.758Z,99.90
2023-05-20T20:46:02.829Z,99.90
2023-05-20T20:48:30.681Z,99.90
2023-05-20T20:50:59.100Z,99.90
2023-05-20T20:53:27.054Z,99.90
2023-05-20T20:55:56.954Z,99.90
2023-05-20T20:58:24.893Z,99.90
2023-05-20T21:00:54.184Z,99.90
2023-05-20T21:03:24.130Z,99.90
2023-05-20T21:05:52.038Z,99.90
2023-05-20T21:08:22.185Z,99.90
2023-05-20T21:10:50.077Z,99.90
2023-05-20T21:13:17.987Z,99.90
2023-05-20T21:15:46.488Z,99.90
2023-05-20T21:18:21.578Z,99.90
2023-05-20T21:20:49.692Z,99.90
2023-05-20T21:23:17.643Z,99.90
2023-05-20T21:25:45.842Z,99.90
2023-05-20T21:28:14.363Z,99.90
2023-05-20T21:30:42.401Z,99.90
2023-05-20T21:33:10.306Z,99.90
2023-05-20T21:35:39.877Z,99.90
2023-05-20T21:38:07.935Z,99.90
2023-05-20T21:40:35.935Z,99.90
2023-05-20T21:43:03.862Z,99.90
2023-05-20T21:45:31.816Z,99.90
2023-05-20T21:47:59.715Z,99.90
2023-05-20T21:50:27.701Z,99.90
2023-05-20T21:52:56.952Z,99.90
2023-05-20T21:55:24.955Z,99.90
2023-05-20T21:57:52.814Z,99.90
2023-05-20T22:00:20.774Z,99.90
2023-05-20T22:02:49.047Z,99.90
2023-05-20T22:05:17.461Z,99.90
2023-05-20T22:07:45.353Z,99.90
2023-05-20T22:10:17.401Z,99.90
2023-05-20T22:12:45.783Z,99.90
2023-05-20T22:15:14.094Z,99.90
2023-05-20T22:17:42.297Z,99.90
2023-05-20T22:20:11.608Z,99.90
2023-05-20T22:22:40.071Z,99.90
2023-05-20T22:25:08.904Z,99.90
2023-05-20T22:27:38.675Z,99.90
2023-05-20T22:30:08.488Z,99.90
2023-05-20T22:32:36.807Z,99.90
2023-05-20T22:35:05.150Z,99.90
2023-05-20T22:37:33.518Z,99.90
2023-05-20T22:40:01.499Z,99.90
2023-05-20T22:42:29.361Z,99.90
2023-05-20T22:44:58.609Z,99.90
2023-05-20T22:47:26.517Z,99.90
2023-05-20T22:49:54.788Z,99.90
2023-05-20T22:52:25.389Z,99.90
2023-05-20T22:54:53.340Z,99.90
2023-05-20T22:57:21.261Z,99.90
2023-05-20T22:59:49.228Z,99.90
2023-05-20T23:02:18.546Z,99.90
2023-05-20T23:04:46.568Z,99.90
2023-05-20T23:07:16.162Z,99.90
2023-05-20T23:09:44.105Z,99.90
2023-05-20T23:12:11.979Z,99.90
2023-05-20T23:14:39.936Z,99.90
2023-05-20T23:17:08.131Z,99.90
2023-05-20T23:19:37.445Z,99.90
2023-05-20T23:22:05.577Z,99.90
2023-05-20T23:24:33.455Z,99.90
2023-05-20T23:27:01.454Z,99.90
2023-05-20T23:29:29.343Z,99.90
2023-05-20T23:31:57.231Z,99.90
2023-05-20T23:34:25.168Z,99.90
2023-05-20T23:36:54.717Z,99.90
2023-05-20T23:39:22.673Z,99.90
2023-05-20T23:41:50.651Z,99.90
2023-05-20T23:44:18.587Z,99.90
2023-05-20T23:46:46.412Z,99.90
2023-05-20T23:49:14.294Z,99.90
2023-05-20T23:51:42.176Z,99.90
2023-05-20T23:54:14.682Z,99.90
2023-05-20T23:56:42.722Z,99.90
2023-05-20T23:59:10.645Z,99.90
